Time;durP1;ratioP1;P1;durP2;ratioP2;P2;SDS_P1;SDS_P2;PMS_P1;PMS_P2;Temp;Humidity;BMP_temperature;BMP_pressure;BME280_temperature;BME280_humidity;BME280_pressure;Samples;Min_cycle;Max_cycle;Signal;HPM_P1;HPM_P2
2023/03/14 00:01:24;;;;;;;4.57;1.30;;;17.50;51.90;;;;;;5092314;28;20214;-72
2023/03/14 00:03:51;;;;;;;4.28;1.48;;;17.60;52.00;;;;;;5092184;28;20190;-72
2023/03/14 00:06:19;;;;;;;5.75;1.80;;;17.50;51.90;;;;;;5092116;28;20744;-72
2023/03/14 00:08:46;;;;;;;4.55;1.65;;;17.60;52.10;;;;;;5092576;28;20600;-72
2023/03/14 00:11:16;;;;;;;5.63;1.83;;;17.50;52.00;;;;;;5092301;28;20222;-71
2023/03/14 00:13:43;;;;;;;4.00;1.65;;;17.50;52.00;;;;;;5092056;28;20222;-72
2023/03/14 00:16:13;;;;;;;7.07;1.85;;;17.50;52.10;;;;;;5092156;28;20247;-72
2023/03/14 00:18:40;;;;;;;4.47;1.52;;;17.50;52.10;;;;;;5092223;28;20648;-72
2023/03/14 00:21:10;;;;;;;5.50;1.98;;;17.50;52.10;;;;;;5092172;28;20238;-72
2023/03/14 00:23:39;;;;;;;4.55;1.60;;;17.50;52.10;;;;;;5092222;28;20194;-72
2023/03/14 00:26:08;;;;;;;2.97;1.27;;;17.50;52.20;;;;;;5092243;28;20582;-72
2023/03/14 00:28:36;;;;;;;4.47;1.50;;;17.50;52.20;;;;;;5091967;28;20251;-72
2023/03/14 00:31:04;;;;;;;5.25;1.77;;;17.50;52.20;;;;;;5091780;28;20753;-72
2023/03/14 00:33:33;;;;;;;4.55;1.63;;;17.50;52.20;;;;;;5092052;28;20237;-72
2023/03/14 00:36:02;;;;;;;4.65;1.60;;;17.50;52.30;;;;;;5092175;28;20683;-72
2023/03/14 00:38:29;;;;;;;3.63;1.42;;;17.50;52.20;;;;;;5092011;28;20194;-72
2023/03/14 00:40:56;;;;;;;3.60;1.20;;;17.50;52.30;;;;;;5092016;28;20218;-71
2023/03/14 00:43:23;;;;;;;5.00;1.35;;;17.50;52.30;;;;;;5095550;28;20241;-72
2023/03/14 00:45:51;;;;;;;4.88;1.33;;;17.50;52.40;;;;;;5095420;28;20267;-71
2023/03/14 00:48:19;;;;;;;3.58;1.40;;;17.50;52.40;;;;;;5095616;28;20663;-72
2023/03/14 00:50:48;;;;;;;4.32;1.65;;;17.50;52.40;;;;;;5095538;28;20267;-72
2023/03/14 00:53:15;;;;;;;2.85;1.17;;;17.50;52.40;;;;;;5095307;28;20218;-72
2023/03/14 00:55:43;;;;;;;5.20;1.50;;;17.50;52.40;;;;;;5095627;28;20617;-72
2023/03/14 00:58:11;;;;;;;5.07;1.33;;;17.50;52.40;;;;;;5095355;28;20261;-72
2023/03/14 01:00:38;;;;;;;4.65;1.42;;;17.50;52.40;;;;;;5095341;28;20224;-72
2023/03/14 01:03:06;;;;;;;6.72;1.92;;;17.50;52.40;;;;;;5095466;28;20252;-72
2023/03/14 01:05:34;;;;;;;5.38;1.35;;;17.50;52.90;;;;;;5095524;28;20210;-72
2023/03/14 01:08:03;;;;;;;4.93;1.42;;;17.50;52.30;;;;;;5095375;28;20190;-72
2023/03/14 01:10:30;;;;;;;4.70;1.50;;;17.40;52.10;;;;;;5095267;28;20595;-72
2023/03/14 01:12:57;;;;;;;5.75;1.38;;;17.40;52.10;;;;;;5095252;28;20194;-72
2023/03/14 01:15:24;;;;;;;3.47;1.10;;;17.40;52.10;;;;;;5095274;28;20264;-72
2023/03/14 01:17:51;;;;;;;5.47;1.50;;;17.40;52.10;;;;;;5094955;28;20652;-71
2023/03/14 01:20:19;;;;;;;4.82;1.65;;;17.40;52.10;;;;;;5094082;28;20225;-72
2023/03/14 01:22:46;;;;;;;4.65;1.73;;;17.40;52.00;;;;;;5095142;28;20193;-71
2023/03/14 01:25:16;;;;;;;6.32;1.55;;;17.40;52.00;;;;;;5094793;28;20233;-72
2023/03/14 01:27:44;;;;;;;6.53;1.42;;;17.40;52.00;;;;;;5095147;28;20190;-72
2023/03/14 01:30:13;;;;;;;3.40;1.10;;;17.40;51.90;;;;;;5094995;28;20263;-72
2023/03/14 01:32:40;;;;;;;5.82;1.80;;;17.40;51.80;;;;;;5094971;28;20197;-72
2023/03/14 01:35:08;;;;;;;5.13;1.60;;;17.40;51.80;;;;;;5094461;28;20225;-72
2023/03/14 01:37:36;;;;;;;4.60;1.73;;;17.40;51.70;;;;;;5094947;28;20224;-72
2023/03/14 01:40:05;;;;;;;7.32;1.65;;;17.40;51.60;;;;;;5094492;28;20193;-71
2023/03/14 01:42:34;;;;;;;5.20;1.60;;;17.40;51.60;;;;;;5094468;28;20302;-72
2023/03/14 01:45:02;;;;;;;8.20;2.10;;;17.40;51.60;;;;;;5094586;28;20202;-72
2023/03/14 01:47:29;;;;;;;4.82;1.83;;;17.40;51.60;;;;;;5094452;28;20186;-72
2023/03/14 01:50:00;;;;;;;8.23;2.00;;;17.40;51.50;;;;;;5094387;28;20190;-72
2023/03/14 01:52:33;;;;;;;5.97;1.50;;;17.30;51.30;;;;;;5093820;28;20193;-72
2023/03/14 01:55:04;;;;;;;6.65;1.70;;;17.30;51.30;;;;;;5094285;28;20217;-72
2023/03/14 01:57:38;;;;;;;5.70;1.60;;;17.30;51.30;;;;;;5094495;28;20190;-72
2023/03/14 02:00:12;;;;;;;3.88;1.63;;;17.30;51.20;;;;;;5094353;28;20190;-72
2023/03/14 02:02:41;;;;;;;4.47;1.80;;;17.30;51.20;;;;;;5094245;28;20200;-72
2023/03/14 02:05:09;;;;;;;6.85;1.58;;;17.30;51.00;;;;;;5093920;28;20558;-72
2023/03/14 02:07:41;;;;;;;6.88;1.80;;;17.30;51.00;;;;;;5097460;28;20647;-72
2023/03/14 02:10:10;;;;;;;6.82;1.58;;;17.30;51.00;;;;;;5094051;28;20194;-72
2023/03/14 02:12:39;;;;;;;8.15;1.92;;;17.30;50.90;;;;;;5094048;28;20243;-72
2023/03/14 02:15:08;;;;;;;5.82;1.60;;;17.30;50.90;;;;;;5093573;28;20271;-71
2023/03/14 02:17:37;;;;;;;6.63;1.85;;;17.30;50.80;;;;;;5093391;28;20279;-72
2023/03/14 02:20:17;;;;;;;8.00;1.58;;;17.30;50.80;;;;;;5093658;28;20271;-72
2023/03/14 02:22:46;;;;;;;5.88;1.83;;;17.30;50.70;;;;;;5093643;28;20228;-72
2023/03/14 02:25:18;;;;;;;12.63;2.13;;;17.30;50.60;;;;;;5093549;28;20194;-72
2023/03/14 02:27:48;;;;;;;5.63;1.60;;;17.30;50.50;;;;;;5093979;28;20186;-72
2023/03/14 02:30:18;;;;;;;6.88;2.42;;;17.30;50.50;;;;;;5092375;28;20240;-72
2023/03/14 02:32:48;;;;;;;6.60;1.70;;;17.20;50.30;;;;;;5093824;28;20644;-72
2023/03/14 02:35:19;;;;;;;7.18;1.83;;;17.20;50.30;;;;;;5093327;28;20264;-72
2023/03/14 02:37:52;;;;;;;7.35;1.80;;;17.30;50.30;;;;;;5093456;28;20651;-72
2023/03/14 02:40:20;;;;;;;9.43;2.08;;;17.30;50.20;;;;;;5092609;28;20210;-72
2023/03/14 02:42:49;;;;;;;5.22;1.63;;;17.20;50.10;;;;;;5093509;28;20234;-72
2023/03/14 02:45:45;;;;;;;11.45;2.10;;;17.20;50.00;;;;;;5093409;28;20206;-72
2023/03/14 02:48:18;;;;;;;9.65;2.05;;;17.20;49.90;;;;;;5093599;28;20186;-72
2023/03/14 02:50:46;;;;;;;6.75;2.00;;;17.20;49.90;;;;;;5093194;28;20239;-72
2023/03/14 02:53:16;;;;;;;6.47;1.90;;;17.20;49.80;;;;;;5093388;28;20284;-72
2023/03/14 02:55:46;;;;;;;7.60;1.90;;;17.20;49.70;;;;;;5092977;28;20699;-72
2023/03/14 02:58:15;;;;;;;4.63;1.83;;;17.20;49.70;;;;;;5093329;28;20190;-72
2023/03/14 03:00:42;;;;;;;7.13;1.92;;;17.20;49.60;;;;;;5093359;28;20221;-72
2023/03/14 03:03:10;;;;;;;5.78;2.03;;;17.20;49.50;;;;;;5093227;28;20194;-72
2023/03/14 03:05:37;;;;;;;6.00;1.90;;;17.20;49.50;;;;;;5092522;28;20217;-72
2023/03/14 03:08:04;;;;;;;8.60;2.20;;;17.20;49.40;;;;;;5093121;28;20190;-72
2023/03/14 03:10:32;;;;;;;7.32;1.67;;;17.20;49.30;;;;;;5092544;28;20714;-72
2023/03/14 03:12:59;;;;;;;5.63;1.80;;;17.20;49.30;;;;;;5093080;28;20201;-72
2023/03/14 03:15:28;;;;;;;5.28;1.77;;;17.20;49.20;;;;;;5092897;28;20237;-72
2023/03/14 03:17:55;;;;;;;7.40;1.83;;;17.20;49.10;;;;;;5092680;28;20220;-72
2023/03/14 03:20:22;;;;;;;5.47;1.75;;;17.10;49.00;;;;;;5092960;28;20221;-72
2023/03/14 03:22:49;;;;;;;8.43;1.80;;;17.10;49.00;;;;;;5092616;28;20197;-72
2023/03/14 03:25:17;;;;;;;8.45;2.17;;;17.10;49.00;;;;;;5091673;28;20247;-72
2023/03/14 03:27:44;;;;;;;8.40;1.90;;;17.10;48.90;;;;;;5092918;28;20189;-72
2023/03/14 03:30:12;;;;;;;4.97;2.10;;;17.10;48.90;;;;;;5092731;28;20186;-72
2023/03/14 03:32:40;;;;;;;4.75;1.75;;;17.20;49.00;;;;;;5092425;28;20194;-72
2023/03/14 03:35:08;;;;;;;5.82;1.70;;;17.10;48.90;;;;;;5092896;28;20230;-72
2023/03/14 03:37:36;;;;;;;10.73;2.30;;;17.10;48.80;;;;;;5092761;28;20640;-72
2023/03/14 03:40:05;;;;;;;9.32;2.00;;;17.10;48.80;;;;;;5092649;28;20189;-72
2023/03/14 03:42:33;;;;;;;5.10;1.77;;;17.10;48.70;;;;;;5092323;28;20779;-71
2023/03/14 03:45:01;;;;;;;7.72;1.85;;;17.10;48.50;;;;;;5092645;28;20251;-72
2023/03/14 03:47:28;;;;;;;8.07;2.35;;;17.10;48.50;;;;;;5092619;28;20244;-72
2023/03/14 03:49:56;;;;;;;7.13;1.85;;;17.10;48.50;;;;;;5092527;28;20194;-72
2023/03/14 03:52:23;;;;;;;4.63;1.90;;;17.10;48.50;;;;;;5092513;28;20210;-72
2023/03/14 03:54:50;;;;;;;6.53;1.80;;;17.10;48.50;;;;;;5092374;28;20221;-71
2023/03/14 03:57:17;;;;;;;5.93;1.67;;;17.10;48.50;;;;;;5092403;28;20209;-72
2023/03/14 03:59:44;;;;;;;6.43;1.83;;;17.10;48.50;;;;;;5092239;28;20190;-71
2023/03/14 04:02:11;;;;;;;6.20;1.80;;;17.10;48.50;;;;;;5092329;28;20275;-71
2023/03/14 04:04:39;;;;;;;6.40;2.05;;;17.10;48.40;;;;;;5092381;28;20193;-72
2023/03/14 04:07:07;;;;;;;7.18;1.90;;;17.10;48.40;;;;;;5092407;28;20250;-71
2023/03/14 04:09:34;;;;;;;6.05;1.67;;;17.00;48.20;;;;;;5092483;28;20190;-72
2023/03/14 04:12:01;;;;;;;4.57;1.40;;;17.10;48.20;;;;;;5092085;28;20220;-72
2023/03/14 04:14:28;;;;;;;6.60;1.80;;;17.00;48.20;;;;;;5092217;28;20617;-71
2023/03/14 04:16:56;;;;;;;4.57;1.55;;;17.10;48.10;;;;;;5095490;28;20703;-72
2023/03/14 04:19:23;;;;;;;5.38;1.67;;;17.00;48.00;;;;;;5096524;28;20186;-71
2023/03/14 04:21:50;;;;;;;9.35;2.28;;;17.00;47.90;;;;;;5096088;28;20217;-71
2023/03/14 04:24:18;;;;;;;5.13;1.58;;;17.00;48.00;;;;;;5096110;28;20198;-72
2023/03/14 04:26:45;;;;;;;6.18;1.98;;;17.00;47.90;;;;;;5095961;28;20225;-72
2023/03/14 04:29:12;;;;;;;5.57;2.00;;;17.00;47.90;;;;;;5096367;28;20399;-71
2023/03/14 04:31:40;;;;;;;6.55;2.20;;;17.00;47.90;;;;;;5095901;28;20233;-71
2023/03/14 04:34:07;;;;;;;5.32;1.83;;;17.00;47.90;;;;;;5095907;28;20185;-71
2023/03/14 04:36:34;;;;;;;6.55;1.58;;;17.00;47.80;;;;;;5096005;28;20634;-72
2023/03/14 04:39:01;;;;;;;8.00;1.95;;;17.00;47.70;;;;;;5096092;28;20592;-71
2023/03/14 04:41:30;;;;;;;5.85;1.95;;;17.00;47.80;;;;;;5095810;28;20233;-71
2023/03/14 04:43:57;;;;;;;3.75;1.80;;;17.00;47.70;;;;;;5096233;28;20190;-71
2023/03/14 04:46:24;;;;;;;4.90;1.60;;;17.00;47.70;;;;;;5095536;28;20244;-71
2023/03/14 04:48:51;;;;;;;6.35;1.48;;;17.00;47.60;;;;;;5095909;28;20198;-71
2023/03/14 04:51:18;;;;;;;5.80;2.10;;;17.00;47.60;;;;;;5095771;28;20217;-71
2023/03/14 04:53:45;;;;;;;5.28;1.77;;;17.00;47.60;;;;;;5095543;28;20202;-71
2023/03/14 04:56:12;;;;;;;4.55;1.83;;;17.00;47.60;;;;;;5095358;28;20259;-72
2023/03/14 04:58:41;;;;;;;4.30;1.67;;;16.90;47.50;;;;;;5095626;28;20194;-72
2023/03/14 05:01:08;;;;;;;5.55;1.55;;;17.00;47.50;;;;;;5095706;28;20214;-71
2023/03/14 05:03:37;;;;;;;5.15;1.80;;;16.90;47.40;;;;;;5095284;28;20667;-72
2023/03/14 05:06:05;;;;;;;6.15;1.55;;;16.90;47.40;;;;;;5095577;28;20228;-71
2023/03/14 05:08:32;;;;;;;4.68;1.58;;;16.90;47.30;;;;;;5095112;28;20193;-72
2023/03/14 05:11:00;;;;;;;8.32;1.58;;;16.90;47.30;;;;;;5095526;28;20214;-72
2023/03/14 05:13:27;;;;;;;4.28;1.38;;;17.00;47.40;;;;;;5077021;28;20745;-71
2023/03/14 05:16:04;;;;;;;5.30;1.55;;;16.90;47.30;;;;;;5095270;28;20596;-72
2023/03/14 05:18:32;;;;;;;6.97;1.83;;;16.90;47.20;;;;;;5094976;28;20282;-71
2023/03/14 05:20:59;;;;;;;4.72;1.50;;;16.90;47.20;;;;;;5095277;28;20218;-71
2023/03/14 05:23:26;;;;;;;3.38;1.70;;;16.90;47.20;;;;;;5095250;28;20197;-71
2023/03/14 05:25:53;;;;;;;5.15;1.55;;;16.90;47.20;;;;;;5095334;28;20214;-71
2023/03/14 05:28:20;;;;;;;5.78;1.70;;;16.90;47.10;;;;;;5094260;28;20190;-71
2023/03/14 05:30:47;;;;;;;5.40;1.17;;;16.90;47.10;;;;;;5094842;28;20217;-72
2023/03/14 05:33:16;;;;;;;7.95;2.00;;;16.90;47.10;;;;;;5094937;28;20193;-71
2023/03/14 05:35:43;;;;;;;7.93;1.90;;;16.90;47.10;;;;;;5094779;28;20323;-72
2023/03/14 05:38:10;;;;;;;5.53;1.38;;;16.90;47.00;;;;;;5094909;28;20218;-72
2023/03/14 05:40:37;;;;;;;4.90;1.55;;;16.90;47.00;;;;;;5094558;28;20765;-72
2023/03/14 05:43:04;;;;;;;4.68;1.63;;;16.90;47.10;;;;;;5094408;28;20234;-72
2023/03/14 05:45:31;;;;;;;6.10;2.20;;;16.90;47.10;;;;;;5094852;28;20255;-72
2023/03/14 05:47:58;;;;;;;11.48;2.40;;;16.90;47.10;;;;;;5094707;28;20236;-71
2023/03/14 05:50:27;;;;;;;2.90;1.40;;;16.90;47.10;;;;;;5094394;28;20671;-72
2023/03/14 05:52:54;;;;;;;6.82;1.65;;;16.90;47.00;;;;;;5094396;28;20443;-71
2023/03/14 05:55:21;;;;;;;5.18;1.42;;;17.00;47.10;;;;;;5094373;28;20217;-72
2023/03/14 05:57:48;;;;;;;4.82;1.45;;;17.00;47.10;;;;;;5094176;28;20194;-71
2023/03/14 06:00:16;;;;;;;4.63;1.60;;;17.00;47.00;;;;;;5094456;28;20670;-72
2023/03/14 06:02:43;;;;;;;6.38;2.13;;;17.00;47.00;;;;;;5094530;28;20186;-72
2023/03/14 06:05:10;;;;;;;6.85;1.70;;;17.00;47.00;;;;;;5094434;28;20186;-71
2023/03/14 06:07:38;;;;;;;4.10;1.58;;;17.10;47.00;;;;;;5094383;28;20217;-71
2023/03/14 06:10:08;;;;;;;6.63;1.95;;;17.10;47.00;;;;;;5094030;28;20676;-71
2023/03/14 06:12:35;;;;;;;4.40;1.52;;;17.10;46.90;;;;;;5094146;28;20221;-72
2023/03/14 06:15:02;;;;;;;4.47;1.70;;;17.10;47.00;;;;;;5093843;28;20217;-71
2023/03/14 06:17:29;;;;;;;6.38;1.60;;;17.10;46.90;;;;;;5094366;28;20624;-72
2023/03/14 06:19:56;;;;;;;6.47;1.70;;;17.20;47.00;;;;;;5093819;28;20193;-72
2023/03/14 06:22:24;;;;;;;8.50;1.85;;;17.20;47.00;;;;;;5093688;28;20217;-72
2023/03/14 06:24:52;;;;;;;4.68;1.48;;;17.20;47.00;;;;;;5093709;28;20575;-72
2023/03/14 06:27:19;;;;;;;5.03;1.60;;;17.20;46.90;;;;;;5093874;28;20224;-72
2023/03/14 06:29:46;;;;;;;5.13;1.50;;;17.20;46.70;;;;;;5093825;28;20190;-71
2023/03/14 06:32:13;;;;;;;6.70;2.05;;;17.20;46.80;;;;;;5093720;28;20600;-71
2023/03/14 06:34:40;;;;;;;5.32;1.65;;;17.30;46.90;;;;;;5093310;28;20190;-71
2023/03/14 06:37:08;;;;;;;4.47;1.73;;;17.30;46.90;;;;;;5093679;28;20739;-71
2023/03/14 06:39:35;;;;;;;5.63;1.70;;;17.30;46.80;;;;;;5093733;28;20573;-71
2023/03/14 06:42:03;;;;;;;5.15;1.42;;;17.40;46.90;;;;;;5093406;28;20537;-71
2023/03/14 06:44:30;;;;;;;4.40;1.40;;;17.30;46.90;;;;;;5093194;28;20554;-72
2023/03/14 06:46:57;;;;;;;4.75;1.80;;;17.40;46.90;;;;;;5093527;28;20221;-72
2023/03/14 06:49:25;;;;;;;3.35;1.38;;;17.40;46.70;;;;;;5093184;28;20640;-72
2023/03/14 06:51:52;;;;;;;6.57;1.80;;;17.40;46.60;;;;;;5093251;28;20559;-72
2023/03/14 06:54:19;;;;;;;11.30;2.17;;;17.40;46.00;;;;;;5093329;28;20609;-72
2023/03/14 06:56:46;;;;;;;7.90;1.63;;;17.50;45.00;;;;;;5093374;28;20233;-72
2023/03/14 06:59:15;;;;;;;9.52;1.92;;;17.40;44.00;;;;;;5058059;28;20209;-72
2023/03/14 07:01:42;;;;;;;7.68;1.75;;;17.40;44.00;;;;;;5092894;28;20218;-72
2023/03/14 07:04:10;;;;;;;7.25;2.03;;;17.40;43.80;;;;;;5093053;28;20197;-73
2023/03/14 07:06:39;;;;;;;6.97;2.05;;;17.40;43.90;;;;;;5093081;28;20242;-73
2023/03/14 07:09:06;;;;;;;10.52;2.53;;;17.40;43.50;;;;;;5093073;28;20562;-75
2023/03/14 07:11:34;;;;;;;11.27;2.33;;;17.50;44.00;;;;;;5092952;28;20305;-74
2023/03/14 07:14:01;;;;;;;6.55;2.00;;;17.50;43.90;;;;;;5092942;28;20604;-74
2023/03/14 07:16:32;;;;;;;7.72;2.15;;;17.50;43.60;;;;;;5092694;28;20687;-74
2023/03/14 07:18:59;;;;;;;9.07;2.40;;;17.50;42.50;;;;;;5093085;28;20193;-74
2023/03/14 07:21:27;;;;;;;12.50;2.30;;;17.50;42.50;;;;;;5093008;28;20626;-74
2023/03/14 07:23:54;;;;;;;7.25;2.10;;;17.50;42.40;;;;;;5092607;28;20193;-75
2023/03/14 07:26:21;;;;;;;11.15;1.92;;;17.50;42.30;;;;;;5092966;28;20225;-75
2023/03/14 07:28:48;;;;;;;13.25;2.17;;;17.60;41.30;;;;;;5092918;28;20263;-75
2023/03/14 07:31:15;;;;;;;13.38;2.33;;;17.50;39.60;;;;;;5093572;28;20571;-75
2023/03/14 07:33:44;;;;;;;11.57;2.58;;;17.40;39.10;;;;;;5092351;28;20251;-75
2023/03/14 07:36:12;;;;;;;10.52;2.38;;;17.30;38.70;;;;;;5092092;28;20614;-74
2023/03/14 07:38:39;;;;;;;9.63;2.40;;;17.10;38.00;;;;;;5089123;28;20588;-75
2023/03/14 07:41:07;;;;;;;10.98;2.35;;;17.00;38.00;;;;;;5092281;28;20319;-75
2023/03/14 07:43:34;;;;;;;12.60;2.35;;;16.90;38.10;;;;;;5093102;28;20183;-77
2023/03/14 07:46:02;;;;;;;15.88;2.50;;;16.80;37.90;;;;;;5111923;28;20224;-76
2023/03/14 07:48:30;;;;;;;10.57;2.33;;;16.70;38.00;;;;;;5112084;28;20280;-75
2023/03/14 07:50:59;;;;;;;6.63;2.15;;;16.60;38.50;;;;;;5111357;28;20217;-74
2023/03/14 07:53:27;;;;;;;15.05;2.50;;;16.60;38.50;;;;;;5097070;28;20694;-75
2023/03/14 07:55:55;;;;;;;15.52;2.20;;;16.60;38.60;;;;;;5095544;28;20263;-74
2023/03/14 07:58:23;;;;;;;11.32;3.08;;;16.70;39.80;;;;;;5101599;28;20227;-74
2023/03/14 08:00:51;;;;;;;13.77;2.50;;;16.70;40.30;;;;;;5111738;28;20213;-74
2023/03/14 08:03:19;;;;;;;5.97;2.08;;;16.80;40.80;;;;;;5110248;28;20197;-73
2023/03/14 08:05:49;;;;;;;8.23;2.25;;;16.90;41.00;;;;;;5111403;28;20242;-74
2023/03/14 08:08:18;;;;;;;13.25;2.55;;;17.00;41.30;;;;;;5103631;28;20190;-74
2023/03/14 08:10:46;;;;;;;9.73;2.65;;;17.10;41.50;;;;;;5104670;28;20721;-72
2023/03/14 08:13:14;;;;;;;11.80;2.05;;;17.20;41.80;;;;;;5131974;27;20285;-73
2023/03/14 08:15:42;;;;;;;6.65;2.10;;;17.30;41.80;;;;;;5130828;27;20200;-73
2023/03/14 08:18:10;;;;;;;11.98;2.33;;;17.30;41.90;;;;;;5131511;27;20236;-74
2023/03/14 08:20:37;;;;;;;8.68;1.95;;;17.40;42.10;;;;;;5094378;27;20197;-68
2023/03/14 08:23:04;;;;;;;11.52;2.60;;;17.40;42.20;;;;;;5090981;28;20269;-67
2023/03/14 08:25:33;;;;;;;6.53;1.73;;;17.50;42.40;;;;;;5099723;28;20197;-67
2023/03/14 08:28:01;;;;;;;6.18;1.98;;;17.50;42.50;;;;;;5128699;28;20188;-66
2023/03/14 08:30:29;;;;;;;7.72;1.90;;;17.60;42.60;;;;;;5131692;27;20662;-73
2023/03/14 08:32:58;;;;;;;8.43;1.90;;;17.60;42.70;;;;;;5131592;27;20217;-73
2023/03/14 08:35:25;;;;;;;7.72;1.80;;;17.70;42.80;;;;;;5131329;27;20650;-73
2023/03/14 08:37:56;;;;;;;6.60;1.77;;;17.70;42.80;;;;;;5120838;27;20716;-73
2023/03/14 08:40:23;;;;;;;8.23;2.00;;;17.80;42.90;;;;;;5110890;28;20189;-73
2023/03/14 08:42:52;;;;;;;9.68;2.20;;;17.80;42.90;;;;;;5111113;28;20294;-73
2023/03/14 08:45:20;;;;;;;7.07;1.83;;;17.80;43.00;;;;;;5110681;28;20201;-72
2023/03/14 08:47:47;;;;;;;10.05;1.92;;;17.90;43.10;;;;;;5110877;28;20221;-73
2023/03/14 08:50:14;;;;;;;12.25;2.15;;;17.90;43.10;;;;;;5111244;28;20533;-73
2023/03/14 08:52:41;;;;;;;8.02;1.95;;;17.90;42.90;;;;;;5111100;28;20277;-73
2023/03/14 08:55:09;;;;;;;5.57;1.88;;;17.90;43.10;;;;;;5110907;28;20193;-72
2023/03/14 08:57:37;;;;;;;11.27;2.25;;;18.00;43.30;;;;;;5111043;28;20225;-73
2023/03/14 09:00:10;;;;;;;6.80;1.90;;;18.00;43.30;;;;;;5110969;28;20262;-73
2023/03/14 09:02:37;;;;;;;9.75;2.10;;;18.00;43.40;;;;;;5110798;28;20220;-73
2023/03/14 09:05:05;;;;;;;7.85;1.80;;;18.10;43.50;;;;;;5113275;28;20197;-74
2023/03/14 09:07:32;;;;;;;5.85;1.90;;;18.10;43.50;;;;;;5115148;27;20224;-74
2023/03/14 09:10:00;;;;;;;9.68;1.95;;;18.10;43.50;;;;;;5113233;28;20193;-74
2023/03/14 09:12:27;;;;;;;8.13;1.98;;;18.10;43.50;;;;;;5094443;28;20765;-74
2023/03/14 09:14:55;;;;;;;11.45;2.10;;;18.20;43.60;;;;;;5101498;28;20194;-74
2023/03/14 09:17:23;;;;;;;6.03;1.80;;;18.20;43.60;;;;;;5093937;28;20290;-74
2023/03/14 09:19:50;;;;;;;8.43;2.13;;;18.20;43.70;;;;;;5110587;28;20254;-73
2023/03/14 09:22:17;;;;;;;8.93;2.28;;;18.20;43.50;;;;;;5112710;28;20228;-73
2023/03/14 09:24:45;;;;;;;9.68;1.90;;;18.30;43.50;;;;;;5114464;28;20197;-73
2023/03/14 09:27:12;;;;;;;8.70;2.20;;;18.30;43.60;;;;;;5114091;28;20213;-74
2023/03/14 09:29:39;;;;;;;5.80;1.77;;;18.30;43.70;;;;;;5113590;28;20197;-73
2023/03/14 09:32:08;;;;;;;9.13;1.60;;;18.40;43.80;;;;;;5103637;28;20736;-73
2023/03/14 09:34:36;;;;;;;6.68;1.88;;;18.40;43.80;;;;;;5075993;28;20194;-73
2023/03/14 09:37:04;;;;;;;5.95;1.70;;;18.40;43.80;;;;;;5104533;28;20698;-73
2023/03/14 09:39:31;;;;;;;6.10;1.80;;;18.40;43.90;;;;;;5112444;28;20665;-75
2023/03/14 09:42:02;;;;;;;8.07;1.83;;;18.40;43.90;;;;;;5113304;28;20252;-73
2023/03/14 09:44:32;;;;;;;7.95;1.90;;;18.40;43.90;;;;;;5102488;28;20679;-74
2023/03/14 09:47:04;;;;;;;7.65;1.92;;;18.40;43.80;;;;;;5093317;28;20282;-74
2023/03/14 09:49:34;;;;;;;11.32;2.28;;;18.40;43.80;;;;;;5093670;28;20186;-73
2023/03/14 09:52:06;;;;;;;5.45;1.92;;;18.40;43.80;;;;;;5093282;28;20232;-74
2023/03/14 09:54:37;;;;;;;7.85;2.03;;;18.50;43.70;;;;;;5093588;28;20610;-74
2023/03/14 09:57:05;;;;;;;6.10;1.50;;;18.60;43.80;;;;;;5093110;28;20238;-73
2023/03/14 09:59:34;;;;;;;10.20;1.75;;;18.60;43.80;;;;;;5093498;28;20209;-73
2023/03/14 10:02:12;;;;;;;5.90;1.90;;;18.60;43.70;;;;;;5093309;28;20210;-75
2023/03/14 10:04:44;;;;;;;9.45;1.80;;;18.60;43.70;;;;;;5130402;27;20252;-74
2023/03/14 10:07:19;;;;;;;6.22;1.83;;;18.60;43.80;;;;;;5133747;27;20212;-74
2023/03/14 10:09:48;;;;;;;11.57;2.03;;;18.60;43.70;;;;;;5133995;27;20225;-74
2023/03/14 10:12:15;;;;;;;9.93;2.10;;;18.70;43.80;;;;;;5133418;27;20219;-74
2023/03/14 10:14:53;;;;;;;7.90;1.75;;;18.70;43.80;;;;;;5113017;28;20739;-74
2023/03/14 10:17:22;;;;;;;6.10;1.90;;;18.70;43.70;;;;;;5113212;28;20236;-74
2023/03/14 10:19:54;;;;;;;5.00;1.38;;;18.70;43.70;;;;;;5113258;27;20197;-74
2023/03/14 10:22:25;;;;;;;5.75;1.80;;;18.80;43.80;;;;;;5113101;28;20296;-74
2023/03/14 10:24:55;;;;;;;7.65;2.00;;;18.70;43.70;;;;;;5113188;28;20189;-74
2023/03/14 10:27:29;;;;;;;5.78;2.25;;;18.80;43.80;;;;;;5111869;28;20599;-74
2023/03/14 10:29:57;;;;;;;6.53;1.58;;;18.80;43.80;;;;;;5112513;28;20196;-73
2023/03/14 10:32:32;;;;;;;9.65;1.65;;;18.80;43.60;;;;;;5113043;27;20221;-76
2023/03/14 10:35:20;;;;;;;7.57;1.60;;;18.90;43.80;;;;;;5112265;28;20205;-72
2023/03/14 10:37:59;;;;;;;5.07;1.38;;;19.00;43.90;;;;;;5110826;28;20320;-73
2023/03/14 10:40:29;;;;;;;6.05;1.90;;;18.90;43.90;;;;;;5088815;28;20279;-72
2023/03/14 10:42:58;;;;;;;6.55;1.67;;;19.00;43.90;;;;;;5091512;28;20322;-72
2023/03/14 10:45:37;;;;;;;4.13;1.45;;;19.00;43.90;;;;;;5095512;28;20255;-73
2023/03/14 10:48:22;;;;;;;4.43;1.98;;;19.10;43.90;;;;;;5112731;28;20304;-73
2023/03/14 10:50:50;;;;;;;6.55;1.90;;;19.00;43.80;;;;;;5113058;27;20186;-73
2023/03/14 10:53:19;;;;;;;8.23;1.70;;;19.10;43.90;;;;;;5112347;28;20281;-73
2023/03/14 10:55:47;;;;;;;6.80;1.45;;;19.10;43.90;;;;;;5112826;28;20223;-72
2023/03/14 10:58:25;;;;;;;6.07;1.50;;;19.10;43.90;;;;;;5113871;27;20237;-74
2023/03/14 11:01:06;;;;;;;6.28;1.80;;;19.10;43.90;;;;;;5112471;28;20644;-72
2023/03/14 11:03:36;;;;;;;5.03;1.48;;;19.10;43.90;;;;;;5118594;27;20772;-71
2023/03/14 11:06:11;;;;;;;7.68;1.80;;;19.10;43.90;;;;;;5112073;28;20234;-72
2023/03/14 11:08:47;;;;;;;11.23;1.70;;;19.10;43.90;;;;;;5112118;28;20261;-71
2023/03/14 11:11:21;;;;;;;4.10;1.33;;;19.20;43.90;;;;;;5101157;27;20764;-72
2023/03/14 11:14:03;;;;;;;8.10;1.80;;;19.20;43.90;;;;;;5091941;28;20228;-72
2023/03/14 11:16:39;;;;;;;8.00;1.60;;;19.20;43.70;;;;;;5092028;28;20214;-72
2023/03/14 11:19:38;;;;;;;5.88;1.10;;;19.20;43.70;;;;;;5091541;28;20190;-72
2023/03/14 11:22:15;;;;;;;6.07;1.77;;;19.20;43.60;;;;;;5101941;28;20229;-72
2023/03/14 11:25:04;;;;;;;4.13;1.20;;;19.20;43.60;;;;;;5104182;28;20220;-72
2023/03/14 11:27:45;;;;;;;5.88;1.30;;;19.20;43.60;;;;;;5107329;28;20213;-72
2023/03/14 11:30:23;;;;;;;7.13;1.40;;;19.20;43.60;;;;;;5107618;28;20682;-71
2023/03/14 11:33:00;;;;;;;11.30;1.63;;;19.20;43.60;;;;;;5103801;28;20220;-72
2023/03/14 11:35:31;;;;;;;6.68;1.52;;;19.20;43.50;;;;;;5102100;28;20215;-72
2023/03/14 11:38:11;;;;;;;5.05;1.40;;;19.20;43.40;;;;;;5105940;28;20228;-72
2023/03/14 11:40:41;;;;;;;6.03;2.17;;;19.20;43.30;;;;;;5108042;28;20189;-71
2023/03/14 11:43:16;;;;;;;7.28;1.70;;;19.20;43.30;;;;;;5107866;28;20228;-72
2023/03/14 11:45:46;;;;;;;4.90;1.60;;;19.20;43.30;;;;;;5106232;28;20193;-72
2023/03/14 11:48:26;;;;;;;3.85;1.58;;;19.20;43.20;;;;;;5105994;28;20270;-72
2023/03/14 11:50:58;;;;;;;5.60;1.50;;;19.30;43.30;;;;;;5107526;28;20763;-72
2023/03/14 11:53:37;;;;;;;3.72;1.40;;;19.30;43.20;;;;;;5097230;28;20221;-71
2023/03/14 11:56:17;;;;;;;8.63;1.98;;;19.30;43.20;;;;;;5104721;28;20196;-71
2023/03/14 11:58:56;;;;;;;3.92;1.38;;;19.30;43.10;;;;;;5107701;28;20651;-71
2023/03/14 12:01:30;;;;;;;10.13;1.60;;;19.20;43.10;;;;;;5104582;28;20205;-71
2023/03/14 12:04:03;;;;;;;4.45;1.50;;;19.20;43.00;;;;;;5109212;28;20222;-71
2023/03/14 12:06:37;;;;;;;3.58;1.30;;;19.30;43.10;;;;;;5107934;28;20246;-71
2023/03/14 12:09:05;;;;;;;5.25;1.40;;;19.20;43.00;;;;;;5107606;28;20262;-71
2023/03/14 12:11:39;;;;;;;5.97;1.60;;;19.20;43.00;;;;;;5108600;28;20182;-71
2023/03/14 12:14:22;;;;;;;3.67;1.45;;;19.20;42.90;;;;;;5104180;28;20251;-72
2023/03/14 12:16:50;;;;;;;3.67;1.45;;;19.20;42.90;;;;;;5102645;28;20224;-72
2023/03/14 12:19:29;;;;;;;4.60;1.45;;;19.30;42.90;;;;;;5106789;28;20290;-72
2023/03/14 12:22:01;;;;;;;7.57;1.73;;;19.20;42.80;;;;;;5108072;28;20632;-71
2023/03/14 12:24:31;;;;;;;5.82;1.63;;;19.20;42.90;;;;;;5102803;28;20323;-71
2023/03/14 12:27:02;;;;;;;6.70;1.75;;;19.20;42.80;;;;;;5091428;28;20193;-71
2023/03/14 12:29:31;;;;;;;4.57;1.40;;;19.20;42.80;;;;;;5090872;28;20286;-71
2023/03/14 12:32:24;;;;;;;4.55;1.48;;;19.20;42.80;;;;;;5090728;28;20194;-72
2023/03/14 12:34:51;;;;;;;6.13;1.52;;;19.20;42.70;;;;;;5028534;28;20236;-71
2023/03/14 12:37:29;;;;;;;4.90;1.20;;;19.20;42.80;;;;;;5030272;28;20255;-71
2023/03/14 12:40:09;;;;;;;6.90;1.80;;;19.20;42.80;;;;;;5032294;28;20250;-71
2023/03/14 12:42:46;;;;;;;4.32;1.40;;;19.20;42.70;;;;;;5031449;28;20746;-71
2023/03/14 12:45:23;;;;;;;5.40;1.50;;;19.30;43.40;;;;;;5051018;28;20199;-71
2023/03/14 12:47:56;;;;;;;8.27;1.60;;;19.30;42.80;;;;;;5038419;28;20306;-72
2023/03/14 12:50:33;;;;;;;3.75;1.30;;;19.30;42.80;;;;;;5040966;28;20628;-72
2023/03/14 12:53:28;;;;;;;3.78;1.20;;;19.30;42.50;;;;;;5042856;28;20582;-73
2023/03/14 12:56:03;;;;;;;4.88;1.42;;;19.30;42.50;;;;;;5032424;28;20200;-72
2023/03/14 12:58:34;;;;;;;5.03;1.30;;;19.30;42.50;;;;;;5042663;28;20341;-73